Grande Mariner — WCY6594 — position and weather

sailwx.info

Track history (hours):
 
Tides and Currents Weather Stations Pressure Air Temp Water Temp Dewpoint Dewpoint Depression Visibility Wind Speed Wind Dir Waves Ship Positions

Grande Mariner

Owner: Blount Small Ship Adventures Inc., WARREN, RI. More information available from US FCC via Universal Licensing System and Coast Guard Vessel Documentation Center.

Last reported at 2018-Jul-19 19:40 UTC. Time now 2018-Jul-20 08:09 UTC.
Position N 42°06' W 070°29'.

Length 56 m; draft 2 m.

Type: Ship. MMSI: 369024000.

Date/timePositionNaut miles runAvg speedWind from/ knotsBaromVisibWave heightAir tempDewpointWater temp
2018-Jul-19 19:40N 42°06' W 070°29'2 9.8
2018-Jul-19 19:30N 42°08' W 070°30'5 9.3
2018-Jul-19 19:00N 42°12' W 070°34'5 9.5
2018-Jul-19 18:30N 42°14' W 070°39'5 9.2
2018-Jul-19 18:00N 42°17' W 070°44'5 9.4
2018-Jul-19 17:31N 42°19' W 070°50'4 8.8
2018-Jul-19 17:00N 42°19' W 070°56'4 8.6
2018-Jul-19 16:30N 42°21' W 071°01'1 1.8
2018-Jul-19 15:59N 42°21' W 071°02'1 0.1
2018-Jul-19 12:16N 42°22' W 071°03'0 0.0
2018-Jul-19 11:58N 42°22' W 071°03'0 0.0
2018-Jul-19 11:28N 42°22' W 071°03'0 0.0
2018-Jul-19 10:58N 42°22' W 071°03'0 0.0
2018-Jul-19 10:28N 42°22' W 071°03'0 0.0
2018-Jul-19 09:58N 42°22' W 071°03'0 0.0
2018-Jul-19 09:28N 42°22' W 071°03'0 0.0
2018-Jul-19 08:55N 42°22' W 071°03'0 0.0
2018-Jul-19 08:22N 42°22' W 071°03'0 0.0
2018-Jul-19 07:58N 42°22' W 071°03'0 0.0
2018-Jul-19 07:07N 42°22' W 071°03'0 0.0
2018-Jul-19 06:58N 42°22' W 071°03'0 0.0
2018-Jul-19 06:25N 42°22' W 071°03'0 0.0
2018-Jul-19 05:58N 42°22' W 071°03'0 0.0
2018-Jul-19 05:28N 42°22' W 071°03'0 0.0
2018-Jul-19 04:58N 42°22' W 071°03'0 0.0
2018-Jul-19 04:07N 42°22' W 071°03'0 0.0
2018-Jul-19 03:37N 42°22' W 071°03'0 0.0
2018-Jul-19 03:25N 42°22' W 071°03'0 0.0
2018-Jul-19 02:46N 42°22' W 071°03'0 0.0
2018-Jul-19 02:28N 42°22' W 071°03'0 0.0
2018-Jul-19 01:58N 42°22' W 071°03'0 0.0
2018-Jul-19 01:28N 42°22' W 071°03'0 0.0
2018-Jul-19 00:58N 42°22' W 071°03'0 0.0
2018-Jul-19 00:28N 42°22' W 071°03'0 0.0
2018-Jul-18 23:58N 42°22' W 071°03'0 0.0
2018-Jul-18 23:10N 42°22' W 071°03'0 0.0
2018-Jul-18 22:58N 42°22' W 071°03'0 0.0
2018-Jul-18 15:33N 42°22' W 071°03'0 4.2
2018-Jul-18 15:30N 42°22' W 071°03'6 6.9
2018-Jul-18 14:34N 42°23' W 070°54'1 8.9
2018-Jul-18 14:26N 42°23' W 070°52'9 9.5
2018-Jul-18 13:30N 42°28' W 070°43'5 9.4
2018-Jul-18 13:00N 42°32' W 070°38'4 8.9
2018-Jul-18 12:30N 42°35' W 070°34'4 8.7
2018-Jul-18 12:00N 42°38' W 070°30'510.4
2018-Jul-18 11:30N 42°43' W 070°27'  
2018-Jul-13 03:18N 43°58' W 068°56'2 8.5
2018-Jul-13 03:00N 43°60' W 068°58'5 9.4
2018-Jul-13 02:26N 44°05' W 069°01'3 6.9
2018-Jul-13 02:00N 44°06' W 069°04'2 0.2
2018-Jul-12 16:53N 44°06' W 069°06'3 6.8
2018-Jul-12 16:30N 44°06' W 069°03'4 7.6
2018-Jul-12 16:00N 44°02' W 069°01'5 8.8
2018-Jul-12 15:29N 43°58' W 069°02'4 9.1
2018-Jul-12 15:00N 43°56' W 069°07'86 2.7
2018-Jul-11 07:47N 42°50' W 070°21'2 8.9
2018-Jul-11 07:30N 42°47' W 070°22'5 9.2
2018-Jul-11 07:00N 42°43' W 070°24'4 9.0
2018-Jul-11 06:30N 42°39' W 070°27'5 9.1
2018-Jul-11 06:00N 42°36' W 070°32'5 9.3
2018-Jul-11 05:30N 42°33' W 070°37'5 9.7
2018-Jul-11 05:00N 42°30' W 070°42'5 9.6
2018-Jul-11 04:30N 42°27' W 070°46'5 9.7
2018-Jul-11 04:00N 42°23' W 070°51'5 9.6
2018-Jul-11 03:30N 42°21' W 070°56'4 7.7
2018-Jul-11 03:00N 42°21' W 071°02'1 2.3
2018-Jul-11 02:30N 42°22' W 071°03'0 0.0
2018-Jul-11 02:00N 42°22' W 071°03'0 0.0
2018-Jul-11 01:30N 42°22' W 071°03'0 0.0
2018-Jul-11 01:00N 42°22' W 071°03'0 0.0
2018-Jul-11 00:30N 42°22' W 071°03'0 0.0
2018-Jul-11 00:00N 42°22' W 071°03'0 0.0
2018-Jul-10 23:30N 42°22' W 071°03'0 0.0
2018-Jul-10 23:00N 42°22' W 071°03'0 0.0
2018-Jul-10 22:30N 42°22' W 071°03'0 0.0
2018-Jul-10 22:00N 42°22' W 071°03'0 0.0
2018-Jul-10 21:30N 42°22' W 071°03'0 0.0
2018-Jul-10 21:00N 42°22' W 071°03'0 0.0
2018-Jul-10 20:30N 42°22' W 071°03'0 0.0
2018-Jul-10 20:00N 42°22' W 071°03'0 0.0
2018-Jul-10 19:30N 42°22' W 071°03'0 0.0
2018-Jul-10 18:54N 42°22' W 071°03'0 0.0
2018-Jul-10 18:30N 42°22' W 071°03'0 0.0
2018-Jul-10 18:00N 42°22' W 071°03'0 0.0
2018-Jul-10 17:30N 42°22' W 071°03'0 0.0
2018-Jul-10 17:00N 42°22' W 071°03'0 0.0
2018-Jul-10 16:30N 42°22' W 071°03'0 0.0
2018-Jul-10 16:00N 42°22' W 071°03'0 0.0
2018-Jul-10 15:30N 42°22' W 071°03'0 0.0
2018-Jul-10 15:00N 42°22' W 071°03'0 0.0
2018-Jul-10 14:30N 42°22' W 071°03'0 0.0
2018-Jul-10 14:00N 42°22' W 071°03'0 0.0
2018-Jul-10 13:30N 42°22' W 071°03'0 0.0
2018-Jul-10 13:00N 42°22' W 071°03'0 0.0
2018-Jul-10 12:30N 42°22' W 071°03'0 0.0
2018-Jul-10 12:00N 42°22' W 071°03'0 0.0
2018-Jul-10 11:30N 42°22' W 071°03'0 0.0
2018-Jul-10 11:00N 42°22' W 071°03'0 0.0
2018-Jul-10 10:30N 42°22' W 071°03'0 0.0
2018-Jul-10 10:00N 42°22' W 071°03'0 0.0
2018-Jul-10 09:30N 42°22' W 071°03'0 0.0
2018-Jul-10 09:00N 42°22' W 071°03'0 0.0
2018-Jul-10 08:30N 42°22' W 071°03'0 0.0
2018-Jul-10 08:00N 42°22' W 071°03'0 0.0
2018-Jul-10 07:30N 42°22' W 071°03'0 0.0
2018-Jul-10 07:00N 42°22' W 071°03'0 0.0
2018-Jul-10 06:30N 42°22' W 071°03'0 0.0
2018-Jul-10 06:00N 42°22' W 071°03'0 0.0
2018-Jul-10 05:30N 42°22' W 071°03'0 0.0
2018-Jul-10 05:00N 42°22' W 071°03'0 0.0
2018-Jul-10 04:30N 42°22' W 071°03'0 0.0
2018-Jul-10 04:00N 42°22' W 071°03'0 0.0
2018-Jul-10 03:30N 42°22' W 071°03'0 0.0
2018-Jul-10 03:00N 42°22' W 071°03'0 0.0
2018-Jul-10 02:30N 42°22' W 071°03'0 0.0
2018-Jul-10 02:00N 42°22' W 071°03'0 0.0
2018-Jul-10 01:30N 42°22' W 071°03'0 0.0
2018-Jul-10 01:00N 42°22' W 071°03'0 0.0
2018-Jul-10 00:30N 42°22' W 071°03'0 0.0
2018-Jul-10 00:00N 42°22' W 071°03'0 0.0
2018-Jul-09 23:30N 42°22' W 071°03'0 0.0
2018-Jul-09 23:00N 42°22' W 071°03'0 0.0
2018-Jul-09 22:30N 42°22' W 071°03'0 0.0
2018-Jul-09 22:00N 42°22' W 071°03'0 0.0
2018-Jul-09 21:30N 42°22' W 071°03'0 0.0
2018-Jul-09 21:00N 42°22' W 071°03'0 0.0
2018-Jul-09 20:30N 42°22' W 071°03'0 0.0
2018-Jul-09 20:00N 42°22' W 071°03'  
Track history (hours):
 
Tides and Currents Weather Stations Pressure Air Temp Water Temp Dewpoint Dewpoint Depression Visibility Wind Speed Wind Dir Waves Ship Positions

Grande Mariner

Owner: Blount Small Ship Adventures Inc., WARREN, RI. More information available from US FCC via Universal Licensing System and Coast Guard Vessel Documentation Center.

Last reported at 2018-Jul-19 19:40 UTC. Time now 2018-Jul-20 08:09 UTC.
Position N 42°06' W 070°29'.

Length 56 m; draft 2 m.

Type: Ship. MMSI: 369024000.

Date/timePositionNaut miles runAvg speedWind from/ knotsBaromVisibWave heightAir tempDewpointWater temp
2018-Jul-19 19:40N 42°06' W 070°29'2 9.8
2018-Jul-19 19:30N 42°08' W 070°30'5 9.3
2018-Jul-19 19:00N 42°12' W 070°34'5 9.5
2018-Jul-19 18:30N 42°14' W 070°39'5 9.2
2018-Jul-19 18:00N 42°17' W 070°44'5 9.4
2018-Jul-19 17:31N 42°19' W 070°50'4 8.8
2018-Jul-19 17:00N 42°19' W 070°56'4 8.6
2018-Jul-19 16:30N 42°21' W 071°01'1 1.8
2018-Jul-19 15:59N 42°21' W 071°02'1 0.1
2018-Jul-19 12:16N 42°22' W 071°03'0 0.0
2018-Jul-19 11:58N 42°22' W 071°03'0 0.0
2018-Jul-19 11:28N 42°22' W 071°03'0 0.0
2018-Jul-19 10:58N 42°22' W 071°03'0 0.0
2018-Jul-19 10:28N 42°22' W 071°03'0 0.0
2018-Jul-19 09:58N 42°22' W 071°03'0 0.0
2018-Jul-19 09:28N 42°22' W 071°03'0 0.0
2018-Jul-19 08:55N 42°22' W 071°03'0 0.0
2018-Jul-19 08:22N 42°22' W 071°03'0 0.0
2018-Jul-19 07:58N 42°22' W 071°03'0 0.0
2018-Jul-19 07:07N 42°22' W 071°03'0 0.0
2018-Jul-19 06:58N 42°22' W 071°03'0 0.0
2018-Jul-19 06:25N 42°22' W 071°03'0 0.0
2018-Jul-19 05:58N 42°22' W 071°03'0 0.0
2018-Jul-19 05:28N 42°22' W 071°03'0 0.0
2018-Jul-19 04:58N 42°22' W 071°03'0 0.0
2018-Jul-19 04:07N 42°22' W 071°03'0 0.0
2018-Jul-19 03:37N 42°22' W 071°03'0 0.0
2018-Jul-19 03:25N 42°22' W 071°03'0 0.0
2018-Jul-19 02:46N 42°22' W 071°03'0 0.0
2018-Jul-19 02:28N 42°22' W 071°03'0 0.0
2018-Jul-19 01:58N 42°22' W 071°03'0 0.0
2018-Jul-19 01:28N 42°22' W 071°03'0 0.0
2018-Jul-19 00:58N 42°22' W 071°03'0 0.0
2018-Jul-19 00:28N 42°22' W 071°03'0 0.0
2018-Jul-18 23:58N 42°22' W 071°03'0 0.0
2018-Jul-18 23:10N 42°22' W 071°03'0 0.0
2018-Jul-18 22:58N 42°22' W 071°03'0 0.0
2018-Jul-18 15:33N 42°22' W 071°03'0 4.2
2018-Jul-18 15:30N 42°22' W 071°03'6 6.9
2018-Jul-18 14:34N 42°23' W 070°54'1 8.9
2018-Jul-18 14:26N 42°23' W 070°52'9 9.5
2018-Jul-18 13:30N 42°28' W 070°43'5 9.4
2018-Jul-18 13:00N 42°32' W 070°38'4 8.9
2018-Jul-18 12:30N 42°35' W 070°34'4 8.7
2018-Jul-18 12:00N 42°38' W 070°30'510.4
2018-Jul-18 11:30N 42°43' W 070°27'  
2018-Jul-13 03:18N 43°58' W 068°56'2 8.5
2018-Jul-13 03:00N 43°60' W 068°58'5 9.4
2018-Jul-13 02:26N 44°05' W 069°01'3 6.9
2018-Jul-13 02:00N 44°06' W 069°04'2 0.2
2018-Jul-12 16:53N 44°06' W 069°06'3 6.8
2018-Jul-12 16:30N 44°06' W 069°03'4 7.6
2018-Jul-12 16:00N 44°02' W 069°01'5 8.8
2018-Jul-12 15:29N 43°58' W 069°02'4 9.1
2018-Jul-12 15:00N 43°56' W 069°07'86 2.7
2018-Jul-11 07:47N 42°50' W 070°21'2 8.9
2018-Jul-11 07:30N 42°47' W 070°22'5 9.2
2018-Jul-11 07:00N 42°43' W 070°24'4 9.0
2018-Jul-11 06:30N 42°39' W 070°27'5 9.1
2018-Jul-11 06:00N 42°36' W 070°32'5 9.3
2018-Jul-11 05:30N 42°33' W 070°37'5 9.7
2018-Jul-11 05:00N 42°30' W 070°42'5 9.6
2018-Jul-11 04:30N 42°27' W 070°46'5 9.7
2018-Jul-11 04:00N 42°23' W 070°51'5 9.6
2018-Jul-11 03:30N 42°21' W 070°56'4 7.7
2018-Jul-11 03:00N 42°21' W 071°02'1 2.3
2018-Jul-11 02:30N 42°22' W 071°03'0 0.0
2018-Jul-11 02:00N 42°22' W 071°03'0 0.0
2018-Jul-11 01:30N 42°22' W 071°03'0 0.0
2018-Jul-11 01:00N 42°22' W 071°03'0 0.0
2018-Jul-11 00:30N 42°22' W 071°03'0 0.0
2018-Jul-11 00:00N 42°22' W 071°03'0 0.0
2018-Jul-10 23:30N 42°22' W 071°03'0 0.0
2018-Jul-10 23:00N 42°22' W 071°03'0 0.0
2018-Jul-10 22:30N 42°22' W 071°03'0 0.0
2018-Jul-10 22:00N 42°22' W 071°03'0 0.0
2018-Jul-10 21:30N 42°22' W 071°03'0 0.0
2018-Jul-10 21:00N 42°22' W 071°03'0 0.0
2018-Jul-10 20:30N 42°22' W 071°03'0 0.0
2018-Jul-10 20:00N 42°22' W 071°03'0 0.0
2018-Jul-10 19:30N 42°22' W 071°03'0 0.0
2018-Jul-10 18:54N 42°22' W 071°03'0 0.0
2018-Jul-10 18:30N 42°22' W 071°03'0 0.0
2018-Jul-10 18:00N 42°22' W 071°03'0 0.0
2018-Jul-10 17:30N 42°22' W 071°03'0 0.0
2018-Jul-10 17:00N 42°22' W 071°03'0 0.0
2018-Jul-10 16:30N 42°22' W 071°03'0 0.0
2018-Jul-10 16:00N 42°22' W 071°03'0 0.0
2018-Jul-10 15:30N 42°22' W 071°03'0 0.0
2018-Jul-10 15:00N 42°22' W 071°03'0 0.0
2018-Jul-10 14:30N 42°22' W 071°03'0 0.0
2018-Jul-10 14:00N 42°22' W 071°03'0 0.0
2018-Jul-10 13:30N 42°22' W 071°03'0 0.0
2018-Jul-10 13:00N 42°22' W 071°03'0 0.0
2018-Jul-10 12:30N 42°22' W 071°03'0 0.0
2018-Jul-10 12:00N 42°22' W 071°03'0 0.0
2018-Jul-10 11:30N 42°22' W 071°03'0 0.0
2018-Jul-10 11:00N 42°22' W 071°03'0 0.0
2018-Jul-10 10:30N 42°22' W 071°03'0 0.0
2018-Jul-10 10:00N 42°22' W 071°03'0 0.0
2018-Jul-10 09:30N 42°22' W 071°03'0 0.0
2018-Jul-10 09:00N 42°22' W 071°03'0 0.0
2018-Jul-10 08:30N 42°22' W 071°03'0 0.0
2018-Jul-10 08:00N 42°22' W 071°03'0 0.0
2018-Jul-10 07:30N 42°22' W 071°03'0 0.0
2018-Jul-10 07:00N 42°22' W 071°03'0 0.0
2018-Jul-10 06:30N 42°22' W 071°03'0 0.0
2018-Jul-10 06:00N 42°22' W 071°03'0 0.0
2018-Jul-10 05:30N 42°22' W 071°03'0 0.0
2018-Jul-10 05:00N 42°22' W 071°03'0 0.0
2018-Jul-10 04:30N 42°22' W 071°03'0 0.0
2018-Jul-10 04:00N 42°22' W 071°03'0 0.0
2018-Jul-10 03:30N 42°22' W 071°03'0 0.0
2018-Jul-10 03:00N 42°22' W 071°03'0 0.0
2018-Jul-10 02:30N 42°22' W 071°03'0 0.0
2018-Jul-10 02:00N 42°22' W 071°03'0 0.0
2018-Jul-10 01:30N 42°22' W 071°03'0 0.0
2018-Jul-10 01:00N 42°22' W 071°03'0 0.0
2018-Jul-10 00:30N 42°22' W 071°03'0 0.0
2018-Jul-10 00:00N 42°22' W 071°03'0 0.0
2018-Jul-09 23:30N 42°22' W 071°03'0 0.0
2018-Jul-09 23:00N 42°22' W 071°03'0 0.0
2018-Jul-09 22:30N 42°22' W 071°03'0 0.0
2018-Jul-09 22:00N 42°22' W 071°03'0 0.0
2018-Jul-09 21:30N 42°22' W 071°03'0 0.0
2018-Jul-09 21:00N 42°22' W 071°03'0 0.0
2018-Jul-09 20:30N 42°22' W 071°03'0 0.0
2018-Jul-09 20:00N 42°22' W 071°03'  

Dump ship's entire track history